^^
Saratoga-Weather Station Historical Data
Daily Summary for July 23, 2020 Units:  Metric    English   Both
Daily Weekly Monthly Yearly Custom
  High: Low: Average:
Temperature: 14 °C 9.2 °C 12.2 °C
Dew Point: 12.8 °C 6.5 °C 11.1 °C
Humidity: 97% 82% 93%
Wind Speed: 20.9km/h 0km/h 3.7km/h
Wind Gust: 37km/h - -
Wind- - SW
Pressure: 1015.6 hPa 1009.1 hPa -
Precipitation: 24.9 mm    
Historical Graphs
 
 
Tabular Data for July 23, 2020
Time Temperature Dew Point Pressure Wind Wind Speed Wind Gust Humidity Rainfall Rate (Hourly) solar
00:01 14 °C 12.7 °C 1015.6 hPa SW 1.4 km/h 14.5 km/h 92% 0.0 mm 0 W/m2
00:06 14 °C 12.7 °C 1015.6 hPa NW 3.2 km/h 4.8 km/h 92% 0.2 mm 0 W/m2
00:11 13.9 °C 12.6 °C 1015.6 hPa NW 6.4 km/h 14.5 km/h 92% 0.2 mm 0 W/m2
00:16 13.9 °C 12.6 °C 1015.6 hPa WNW 3.2 km/h 6.4 km/h 92% 0.5 mm 0 W/m2
00:21 13.9 °C 12.8 °C 1015.6 hPa NNW 3.2 km/h 4.8 km/h 93% 0.5 mm 0 W/m2
00:26 13.8 °C 12.7 °C 1015.6 hPa Calm   11.3 km/h 93% 0.8 mm 0 W/m2
00:31 13.8 °C 12.7 °C 1015.6 hPa North 1.4 km/h 6.4 km/h 93% 0.8 mm 0 W/m2
00:36 13.8 °C 12.7 °C 1015.2 hPa Calm   6.4 km/h 93% 1.0 mm 0 W/m2
00:41 13.8 °C 12.7 °C 1015.2 hPa NW 3.2 km/h 8 km/h 93% 1.0 mm 0 W/m2
00:46 13.7 °C 12.8 °C 1015.2 hPa NW 1.4 km/h 14.5 km/h 94% 1.3 mm 0 W/m2
00:51 13.7 °C 12.8 °C 1015.2 hPa Calm   4.8 km/h 94% 1.3 mm 0 W/m2
01:09 13.7 °C 12.8 °C 1015.2 hPa WNW 4.7 km/h 6.4 km/h 94% 1.0 mm 0 W/m2
01:14 13.6 °C 12.7 °C 1015.2 hPa NW 1.4 km/h 9.7 km/h 94% 0.8 mm 0 W/m2
01:20 13.6 °C 12.7 °C 1015.2 hPa NW 4.7 km/h 9.7 km/h 94% 1.0 mm 0 W/m2
01:25 13.6 °C 12.7 °C 1015.2 hPa Calm   14.5 km/h 94% 0.5 mm 0 W/m2
01:30 13.6 °C 12.7 °C 1015.2 hPa WSW 6.4 km/h 9.7 km/h 94% 0.5 mm 0 W/m2
01:35 13.7 °C 12.8 °C 1015.2 hPa WNW 1.4 km/h 6.4 km/h 94% 0.5 mm 0 W/m2
01:40 13.6 °C 12.7 °C 1015.2 hPa Calm   4.8 km/h 94% 0.5 mm 0 W/m2
01:45 13.6 °C 12.7 °C 1015.2 hPa Calm   3.2 km/h 94% 0.5 mm 0 W/m2
01:50 13.6 °C 12.7 °C 1015.2 hPa NNE 1.4 km/h 4.8 km/h 94% 0.5 mm 0 W/m2
01:55 13.6 °C 12.7 °C 1015.2 hPa NE 4.7 km/h 4.8 km/h 94% 0.5 mm 0 W/m2
02:00 13.5 °C 12.6 °C 1015.2 hPa NW 4.7 km/h 6.4 km/h 94% 0.8 mm 0 W/m2
02:05 13.5 °C 12.6 °C 1015.2 hPa ESE 1.4 km/h 4.8 km/h 94% 0.8 mm 0 W/m2
02:10 13.4 °C 12.5 °C 1015.2 hPa WSW 1.4 km/h 6.4 km/h 94% 0.8 mm 0 W/m2
02:15 13.4 °C 12.5 °C 1015.2 hPa NW 3.2 km/h 3.2 km/h 94% 0.5 mm 0 W/m2
02:20 13.4 °C 12.5 °C 1015.2 hPa WNW 3.2 km/h 4.8 km/h 94% 0.8 mm 0 W/m2
02:25 13.4 °C 12.6 °C 1015.2 hPa Calm   6.4 km/h 95% 1.0 mm 0 W/m2
02:30 13.3 °C 12.5 °C 1015.2 hPa South 1.4 km/h 6.4 km/h 95% 1.3 mm 0 W/m2
02:35 13.3 °C 12.5 °C 1015.2 hPa WNW 1.4 km/h 6.4 km/h 95% 1.5 mm 0 W/m2
02:40 13.3 °C 12.5 °C 1015.2 hPa NNW 3.2 km/h 9.7 km/h 95% 2.5 mm 0 W/m2
02:45 13.2 °C 12.4 °C 1015.2 hPa NW 4.7 km/h 4.8 km/h 95% 3.3 mm 0 W/m2
02:50 13.2 °C 12.4 °C 1015.2 hPa WNW 6.4 km/h 6.4 km/h 95% 3.3 mm 0 W/m2
02:55 13.2 °C 12.4 °C 1015.2 hPa Calm   4.8 km/h 95% 3.8 mm 0 W/m2
03:00 13.2 °C 12.4 °C 1015.2 hPa NNW 6.4 km/h 8 km/h 95% 4.1 mm 0 W/m2
03:05 13.2 °C 12.4 °C 1014.9 hPa Calm   4.8 km/h 95% 4.3 mm 0 W/m2
03:10 13.2 °C 12.4 °C 1014.9 hPa NNW 3.2 km/h 8 km/h 95% 4.6 mm 0 W/m2
03:15 13.2 °C 12.4 °C 1014.9 hPa NW 1.4 km/h 3.2 km/h 95% 4.8 mm 0 W/m2
03:20 13.2 °C 12.4 °C 1014.9 hPa Calm   1.6 km/h 95% 4.8 mm 0 W/m2
03:25 13.2 °C 12.4 °C 1014.6 hPa WNW 1.4 km/h 6.4 km/h 95% 5.1 mm 0 W/m2
03:30 13.1 °C 12.3 °C 1014.6 hPa WNW 6.4 km/h 8 km/h 95% 5.1 mm 0 W/m2
03:35 13.1 °C 12.3 °C 1014.6 hPa West 1.4 km/h 8 km/h 95% 4.8 mm 0 W/m2
03:40 13.1 °C 12.3 °C 1014.9 hPa West 1.4 km/h 4.8 km/h 95% 3.6 mm 0 W/m2
03:45 13.1 °C 12.3 °C 1014.6 hPa WNW 9.7 km/h 9.7 km/h 95% 3.6 mm 0 W/m2
03:50 13.1 °C 12.3 °C 1014.6 hPa WNW 7.9 km/h 8 km/h 95% 3.8 mm 0 W/m2
03:55 13.1 °C 12.3 °C 1014.6 hPa WNW 3.2 km/h 4.8 km/h 95% 3.6 mm 0 W/m2
04:00 13.1 °C 12.3 °C 1014.6 hPa Calm   1.6 km/h 95% 3.3 mm 0 W/m2
04:05 13.1 °C 12.3 °C 1014.6 hPa ENE 4.7 km/h 8 km/h 95% 3.3 mm 0 W/m2
04:10 13 °C 12.4 °C 1014.6 hPa NW 6.4 km/h 14.5 km/h 96% 3.3 mm 0 W/m2
04:15 13.1 °C 12.3 °C 1014.2 hPa West 6.4 km/h 8 km/h 95% 3.3 mm 0 W/m2
04:20 13.1 °C 12.3 °C 1014.2 hPa WNW 17.7 km/h 20.9 km/h 95% 3.3 mm 0 W/m2
04:25 13.1 °C 12.3 °C 1014.2 hPa NW 4.7 km/h 4.8 km/h 95% 2.8 mm 0 W/m2
04:30 13.1 °C 12.3 °C 1014.2 hPa West 4.7 km/h 12.9 km/h 95% 3.0 mm 0 W/m2
04:35 13.1 °C 12.3 °C 1014.2 hPa WNW 6.4 km/h 6.4 km/h 95% 3.3 mm 0 W/m2
04:40 13.1 °C 12.3 °C 1014.2 hPa West 6.4 km/h 6.4 km/h 95% 3.6 mm 0 W/m2
04:45 13 °C 12.2 °C 1014.2 hPa WNW 6.4 km/h 8 km/h 95% 2.8 mm 0 W/m2
04:50 12.9 °C 12.1 °C 1014.2 hPa Calm   3.2 km/h 95% 2.3 mm 0 W/m2
04:55 12.9 °C 12.1 °C 1014.2 hPa SW 3.2 km/h 8 km/h 95% 2.3 mm 0 W/m2
05:00 12.8 °C 12 °C 1014.2 hPa SSW 1.4 km/h 4.8 km/h 95% 2.3 mm 0 W/m2
05:05 12.8 °C 12 °C 1014.2 hPa West 4.7 km/h 6.4 km/h 95% 2.0 mm 0 W/m2
05:10 12.8 °C 12 °C 1014.2 hPa NW 1.4 km/h 4.8 km/h 95% 1.8 mm 0 W/m2
05:15 12.7 °C 11.9 °C 1014.2 hPa Calm   1.6 km/h 95% 1.5 mm 0 W/m2
05:20 12.6 °C 11.8 °C 1014.2 hPa Calm   4.8 km/h 95% 1.5 mm 0 W/m2
05:25 12.6 °C 11.8 °C 1013.9 hPa Calm   6.4 km/h 95% 1.5 mm 0 W/m2
05:30 12.6 °C 11.8 °C 1014.2 hPa WSW 1.4 km/h 3.2 km/h 95% 1.5 mm 0 W/m2
05:35 12.5 °C 11.7 °C 1013.9 hPa West 1.4 km/h 6.4 km/h 95% 1.0 mm 0 W/m2
05:54 12.3 °C 11.5 °C 1013.5 hPa Calm   6.4 km/h 95% 0.8 mm 0 W/m2
05:59 12.3 °C 11.7 °C 1013.5 hPa ESE 1.4 km/h 3.2 km/h 96% 0.8 mm 0 W/m2
06:04 12.2 °C 11.6 °C 1013.5 hPa East 1.4 km/h 4.8 km/h 96% 0.8 mm 0 W/m2
06:09 12.2 °C 11.6 °C 1013.5 hPa Calm   1.6 km/h 96% 0.5 mm 0 W/m2
06:14 12.1 °C 11.5 °C 1013.5 hPa Calm     96% 0.8 mm 0 W/m2
06:19 12.1 °C 11.5 °C 1013.5 hPa Calm     96% 0.8 mm 0 W/m2
06:24 12.1 °C 11.5 °C 1013.5 hPa Calm     96% 0.8 mm 0 W/m2
06:29 12 °C 11.4 °C 1013.5 hPa Calm   1.6 km/h 96% 0.5 mm 0 W/m2
06:34 12 °C 11.4 °C 1013.5 hPa Calm   3.2 km/h 96% 0.5 mm 0 W/m2
06:39 11.9 °C 11.3 °C 1013.5 hPa Calm     96% 0.8 mm 0 W/m2
06:44 11.9 °C 11.3 °C 1013.5 hPa Calm   3.2 km/h 96% 0.8 mm 0 W/m2
06:49 11.8 °C 11.2 °C 1013.5 hPa Calm     96% 0.8 mm 0 W/m2
06:54 11.8 °C 11.2 °C 1013.5 hPa Calm     96% 0.5 mm 0 W/m2
06:59 11.8 °C 11.2 °C 1013.5 hPa Calm     96% 0.5 mm 0 W/m2
07:04 11.8 °C 11.2 °C 1013.2 hPa Calm     96% 0.5 mm 0 W/m2
07:09 11.8 °C 11.2 °C 1013.2 hPa Calm     96% 0.5 mm 0 W/m2
07:14 11.7 °C 11.1 °C 1013.2 hPa Calm     96% 0.8 mm 0 W/m2
07:20 11.7 °C 11.1 °C 1013.2 hPa Calm     96% 0.8 mm 0 W/m2
07:25 11.7 °C 11.1 °C 1013.2 hPa Calm     96% 1.0 mm 0 W/m2
07:30 11.7 °C 11.2 °C 1013.2 hPa Calm     97% 1.0 mm 0 W/m2
07:35 11.7 °C 11.1 °C 1012.9 hPa Calm   1.6 km/h 96% 0.8 mm 0 W/m2
07:40 11.7 °C 11.1 °C 1012.9 hPa East 1.4 km/h 3.2 km/h 96% 1.0 mm 0 W/m2
07:45 11.7 °C 11.1 °C 1012.9 hPa Calm     96% 1.0 mm 0 W/m2
07:50 11.7 °C 11.2 °C 1012.9 hPa Calm     97% 1.0 mm 0 W/m2
07:55 11.7 °C 11.2 °C 1012.9 hPa East 3.2 km/h 4.8 km/h 97% 1.3 mm 0 W/m2
08:00 11.7 °C 11.2 °C 1012.9 hPa NE 3.2 km/h 3.2 km/h 97% 1.3 mm 0 W/m2
08:05 11.8 °C 11.3 °C 1012.9 hPa NE 3.2 km/h 4.8 km/h 97% 1.0 mm 0 W/m2
08:10 11.8 °C 11.3 °C 1012.9 hPa Calm   3.2 km/h 97% 1.3 mm 0 W/m2
08:15 11.9 °C 11.4 °C 1012.9 hPa ENE 1.4 km/h 4.8 km/h 97% 0.8 mm 0 W/m2
08:20 12 °C 11.5 °C 1012.9 hPa WNW 4.7 km/h 4.8 km/h 97% 1.0 mm 0 W/m2
08:25 12.2 °C 11.7 °C 1012.9 hPa WNW 1.4 km/h 4.8 km/h 97% 0.8 mm 0 W/m2
08:30 12.2 °C 11.7 °C 1012.9 hPa Calm   3.2 km/h 97% 1.0 mm 0 W/m2
08:35 12.3 °C 11.8 °C 1012.9 hPa West 1.4 km/h 4.8 km/h 97% 1.3 mm 0 W/m2
08:40 12.3 °C 11.8 °C 1012.9 hPa Calm   3.2 km/h 97% 1.0 mm 0 W/m2
08:48 12.4 °C 11.9 °C 1012.5 hPa NE 1.4 km/h 4.8 km/h 97% 1.3 mm 0 W/m2
08:53 12.4 °C 11.9 °C 1012.9 hPa NNW 8 km/h 8 km/h 97% 1.0 mm 0 W/m2
09:14 12.4 °C 11.8 °C 1012.2 hPa NNW 3.2 km/h 6.4 km/h 96% 1.0 mm 9 W/m2
09:19 12.4 °C 11.8 °C 1012.2 hPa NNE 4.7 km/h 8 km/h 96% 0.8 mm 11 W/m2
10:15 12.6 °C 11.8 °C 1012.5 hPa Calm   6.4 km/h 95% 0.0 mm 32 W/m2
10:20 12.6 °C 11.8 °C 1012.5 hPa Calm   1.6 km/h 95% 0.0 mm 30 W/m2
10:44 12.6 °C 11.8 °C 1012.5 hPa NW 4.7 km/h 6.4 km/h 95% 0.0 mm 44 W/m2
10:49 12.7 °C 11.9 °C 1012.5 hPa Calm     95% 0.0 mm 42 W/m2
10:54 12.7 °C 11.9 °C 1012.5 hPa North 4.7 km/h 6.4 km/h 95% 0.0 mm 44 W/m2
10:59 12.7 °C 11.9 °C 1012.2 hPa NE 3.2 km/h 3.2 km/h 95% 0.0 mm 44 W/m2
11:04 12.7 °C 11.9 °C 1012.2 hPa Calm   1.6 km/h 95% 0.0 mm 37 W/m2
11:09 12.7 °C 11.9 °C 1011.9 hPa East 1.4 km/h 3.2 km/h 95% 0.0 mm 35 W/m2
11:14 12.7 °C 11.9 °C 1011.9 hPa ENE 3.2 km/h 4.8 km/h 95% 0.0 mm 47 W/m2
11:19 12.7 °C 11.9 °C 1011.9 hPa Calm   3.2 km/h 95% 0.0 mm 44 W/m2
11:24 12.7 °C 11.9 °C 1011.9 hPa North 3.2 km/h 3.2 km/h 95% 0.0 mm 49 W/m2
11:29 12.7 °C 11.9 °C 1011.9 hPa NNW 3.2 km/h 4.8 km/h 95% 0.0 mm 58 W/m2
11:34 12.7 °C 11.9 °C 1011.5 hPa NE 1.4 km/h 3.2 km/h 95% 0.0 mm 40 W/m2
11:39 12.7 °C 11.8 °C 1011.5 hPa NE 1.4 km/h 1.6 km/h 94% 0.0 mm 30 W/m2
11:44 12.7 °C 11.8 °C 1011.5 hPa ESE 4.7 km/h 4.8 km/h 94% 0.0 mm 42 W/m2
12:05 12.7 °C 11.8 °C 1011.2 hPa NW 6.4 km/h 6.4 km/h 94% 0.5 mm 32 W/m2
12:10 12.7 °C 11.8 °C 1011.2 hPa NW 3.2 km/h 4.8 km/h 94% 0.5 mm 26 W/m2
12:15 12.6 °C 11.7 °C 1010.8 hPa North 1.4 km/h 6.4 km/h 94% 0.8 mm 40 W/m2
12:20 12.6 °C 11.7 °C 1010.8 hPa Calm   4.8 km/h 94% 1.0 mm 33 W/m2
12:25 12.6 °C 11.7 °C 1010.8 hPa WNW 3.2 km/h 6.4 km/h 94% 1.0 mm 35 W/m2
12:30 12.5 °C 11.6 °C 1010.8 hPa North 1.4 km/h 3.2 km/h 94% 1.3 mm 47 W/m2
12:35 12.4 °C 11.5 °C 1010.8 hPa Calm   4.8 km/h 94% 1.3 mm 32 W/m2
12:40 12.4 °C 11.5 °C 1010.5 hPa NW 4.7 km/h 9.7 km/h 94% 1.3 mm 39 W/m2
12:45 12.4 °C 11.5 °C 1010.5 hPa NNW 3.2 km/h 8 km/h 94% 1.3 mm 37 W/m2
12:50 12.4 °C 11.5 °C 1010.2 hPa NW 6.4 km/h 9.7 km/h 94% 1.3 mm 49 W/m2
12:55 12.3 °C 11.4 °C 1010.5 hPa NNE 1.4 km/h 4.8 km/h 94% 1.3 mm 40 W/m2
13:00 12.3 °C 11.4 °C 1010.2 hPa Calm   8 km/h 94% 1.5 mm 39 W/m2
13:05 12.3 °C 11.4 °C 1010.2 hPa NW 3.2 km/h 4.8 km/h 94% 1.3 mm 42 W/m2
13:10 12.3 °C 11.4 °C 1010.2 hPa NNE 3.2 km/h 6.4 km/h 94% 1.0 mm 56 W/m2
13:15 12.3 °C 11.4 °C 1010.2 hPa NE 3.2 km/h 6.4 km/h 94% 0.8 mm 60 W/m2
13:20 12.3 °C 11.4 °C 1010.2 hPa NE 1.4 km/h 3.2 km/h 94% 0.5 mm 60 W/m2
13:25 12.4 °C 11.5 °C 1009.8 hPa NNE 3.2 km/h 4.8 km/h 94% 0.5 mm 62 W/m2
13:30 12.4 °C 11.5 °C 1009.8 hPa NE 6.4 km/h 12.9 km/h 94% 0.5 mm 65 W/m2
13:35 12.4 °C 11.5 °C 1009.8 hPa NE 4.7 km/h 4.8 km/h 94% 0.5 mm 47 W/m2
13:40 12.4 °C 11.5 °C 1009.8 hPa West 11.1 km/h 12.9 km/h 94% 0.2 mm 32 W/m2
13:45 12.4 °C 11.5 °C 1010.2 hPa East 1.4 km/h 6.4 km/h 94% 0.2 mm 14 W/m2
13:50 12.3 °C 11.4 °C 1009.8 hPa Calm   14.5 km/h 94% 0.2 mm 19 W/m2
13:55 12.3 °C 11.4 °C 1009.8 hPa NNE 7.9 km/h 19.3 km/h 94% 0.2 mm 26 W/m2
14:00 12.3 °C 11.4 °C 1010.2 hPa NW 4.7 km/h 11.3 km/h 94% 0.2 mm 32 W/m2
14:06 12.3 °C 11.4 °C 1010.2 hPa NNW 6.4 km/h 6.4 km/h 94% 0.2 mm 18 W/m2
14:11 12.3 °C 11.4 °C 1010.2 hPa North 7.9 km/h 11.3 km/h 94% 0.5 mm 14 W/m2
14:16 12.2 °C 11.3 °C 1010.2 hPa NW 3.2 km/h 8 km/h 94% 0.5 mm 16 W/m2
14:21 12.2 °C 11.3 °C 1010.2 hPa WNW 3.2 km/h 6.4 km/h 94% 0.5 mm 35 W/m2
14:26 12.2 °C 11.3 °C 1010.2 hPa NNE 1.4 km/h 6.4 km/h 94% 0.8 mm 39 W/m2
14:31 12.2 °C 11.3 °C 1009.8 hPa West 1.4 km/h 4.8 km/h 94% 0.8 mm 23 W/m2
14:36 12.1 °C 11.2 °C 1009.8 hPa ENE 3.2 km/h 4.8 km/h 94% 1.3 mm 30 W/m2
14:41 12.1 °C 11.2 °C 1009.8 hPa WNW 3.2 km/h 14.5 km/h 94% 1.5 mm 30 W/m2
14:46 12.1 °C 11.2 °C 1010.2 hPa NNW 3.2 km/h 8 km/h 94% 1.5 mm 16 W/m2
14:51 12.2 °C 11.3 °C 1010.2 hPa NW 3.2 km/h 14.5 km/h 94% 1.5 mm 12 W/m2
14:56 12.1 °C 11.2 °C 1010.2 hPa NNW 3.2 km/h 6.4 km/h 94% 1.8 mm 11 W/m2
15:01 12.1 °C 11.2 °C 1009.8 hPa NNW 3.2 km/h 4.8 km/h 94% 1.8 mm 9 W/m2
15:06 12.1 °C 11.2 °C 1009.8 hPa NNW 6.4 km/h 14.5 km/h 94% 2.0 mm 9 W/m2
15:11 12 °C 11.1 °C 1010.2 hPa WSW 1.4 km/h 19.3 km/h 94% 2.0 mm 9 W/m2
15:16 11.9 °C 11 °C 1010.2 hPa NNW 3.2 km/h 6.4 km/h 94% 2.3 mm 7 W/m2
15:21 11.9 °C 11.1 °C 1010.2 hPa NW 4.7 km/h 9.7 km/h 95% 2.5 mm 5 W/m2
15:26 11.9 °C 11.1 °C 1010.2 hPa SW 4.7 km/h 17.7 km/h 95% 2.8 mm 0 W/m2
15:31 11.9 °C 11.1 °C 1010.2 hPa WNW 6.4 km/h 8 km/h 95% 3.3 mm 0 W/m2
15:36 11.9 °C 11.1 °C 1010.2 hPa NW 3.2 km/h 17.7 km/h 95% 3.0 mm 0 W/m2
15:41 12 °C 11.2 °C 1010.2 hPa West 11.1 km/h 17.7 km/h 95% 3.3 mm 0 W/m2
15:46 12.1 °C 11.2 °C 1010.2 hPa NNW 1.4 km/h 12.9 km/h 94% 3.6 mm 0 W/m2
15:51 12 °C 11.1 °C 1010.2 hPa NW 7.9 km/h 8 km/h 94% 4.1 mm 5 W/m2
15:56 12 °C 11.2 °C 1010.2 hPa Calm   1.6 km/h 95% 4.3 mm 0 W/m2
16:01 12 °C 11.2 °C 1010.2 hPa WSW 1.4 km/h 4.8 km/h 95% 4.3 mm 0 W/m2
16:06 12 °C 11.2 °C 1010.2 hPa WNW 4.7 km/h 8 km/h 95% 4.3 mm 0 W/m2
16:11 12 °C 11.2 °C 1010.2 hPa ENE 3.2 km/h 6.4 km/h 95% 4.6 mm 0 W/m2
16:16 12.1 °C 11.3 °C 1010.2 hPa Calm   4.8 km/h 95% 4.8 mm 0 W/m2
16:21 12.1 °C 11.2 °C 1010.2 hPa North 3.2 km/h 19.3 km/h 94% 5.1 mm 0 W/m2
16:26 12.1 °C 11.2 °C 1010.5 hPa West 6.4 km/h 12.9 km/h 94% 4.8 mm 0 W/m2
16:31 12.1 °C 11.2 °C 1010.5 hPa West 6.4 km/h 19.3 km/h 94% 5.1 mm 0 W/m2
16:36 12.1 °C 11 °C 1010.5 hPa NE 3.2 km/h 4.8 km/h 93% 5.1 mm 0 W/m2
16:41 12 °C 10.9 °C 1010.5 hPa WNW 3.2 km/h 19.3 km/h 93% 5.1 mm 0 W/m2
16:46 12 °C 10.9 °C 1010.2 hPa WNW 1.4 km/h 9.7 km/h 93% 4.8 mm 0 W/m2
17:07 11.8 °C 10.7 °C 1010.2 hPa NW 3.2 km/h 9.7 km/h 93% 3.0 mm 0 W/m2
17:12 11.8 °C 10.7 °C 1010.2 hPa WNW 4.7 km/h 11.3 km/h 93% 2.8 mm 0 W/m2
17:17 11.8 °C 10.7 °C 1010.2 hPa North 4.7 km/h 6.4 km/h 93% 2.3 mm 0 W/m2
17:22 11.8 °C 10.7 °C 1010.2 hPa SW 1.4 km/h 4.8 km/h 93% 1.8 mm 0 W/m2
17:27 11.8 °C 10.9 °C 1010.2 hPa North 3.2 km/h 4.8 km/h 94% 1.5 mm 0 W/m2
17:32 11.7 °C 10.8 °C 1010.2 hPa NNW 1.4 km/h 8 km/h 94% 0.8 mm 0 W/m2
17:37 11.8 °C 10.9 °C 1010.2 hPa ESE 11.1 km/h 11.3 km/h 94% 0.5 mm 0 W/m2
17:42 11.8 °C 10.9 °C 1009.8 hPa NNW 3.2 km/h 8 km/h 94% 0.5 mm 0 W/m2
17:47 11.8 °C 10.9 °C 1009.5 hPa WSW 4.7 km/h 11.3 km/h 94% 0.5 mm 0 W/m2
18:03 11.7 °C 10.8 °C 1009.8 hPa NW 3.2 km/h 6.4 km/h 94% 0.5 mm 0 W/m2
18:08 11.8 °C 10.9 °C 1010.2 hPa NW 1.4 km/h 8 km/h 94% 0.5 mm 0 W/m2
18:13 11.8 °C 10.9 °C 1009.8 hPa NNW 4.7 km/h 6.4 km/h 94% 0.5 mm 0 W/m2
18:18 11.7 °C 10.8 °C 1009.8 hPa South 6.4 km/h 9.7 km/h 94% 0.5 mm 0 W/m2
18:23 11.7 °C 10.8 °C 1009.8 hPa WNW 3.2 km/h 11.3 km/h 94% 0.5 mm 0 W/m2
18:28 11.8 °C 10.9 °C 1009.8 hPa NE 6.4 km/h 6.4 km/h 94% 0.5 mm 0 W/m2
18:33 11.7 °C 10.8 °C 1009.5 hPa NNE 4.7 km/h 6.4 km/h 94% 0.5 mm 0 W/m2
18:54 11.8 °C 10.9 °C 1009.5 hPa SW 3.2 km/h 6.4 km/h 94% 0.0 mm 0 W/m2
18:59 11.8 °C 10.9 °C 1009.5 hPa NW 4.7 km/h 11.3 km/h 94% 0.0 mm 0 W/m2
19:04 11.8 °C 10.9 °C 1009.5 hPa Calm   12.9 km/h 94% 0.0 mm 0 W/m2
19:09 11.8 °C 10.9 °C 1009.5 hPa ESE 3.2 km/h 4.8 km/h 94% 0.0 mm 0 W/m2
19:14 11.8 °C 10.7 °C 1009.5 hPa WSW 6.4 km/h 9.7 km/h 93% 0.0 mm 0 W/m2
19:19 11.8 °C 10.7 °C 1009.1 hPa NW 3.2 km/h 16.1 km/h 93% 0.0 mm 0 W/m2
19:24 11.8 °C 10.7 °C 1009.1 hPa NW 3.2 km/h 6.4 km/h 93% 0.0 mm 0 W/m2
19:29 11.8 °C 10.7 °C 1009.1 hPa Calm   12.9 km/h 93% 0.2 mm 0 W/m2
19:34 11.8 °C 10.7 °C 1009.1 hPa West 6.4 km/h 9.7 km/h 93% 0.2 mm 0 W/m2
19:39 11.8 °C 10.7 °C 1009.1 hPa ESE 3.2 km/h 12.9 km/h 93% 0.2 mm 0 W/m2
19:44 11.8 °C 10.7 °C 1009.1 hPa WNW 1.4 km/h 6.4 km/h 93% 0.2 mm 0 W/m2
19:49 11.8 °C 10.7 °C 1009.1 hPa WNW 6.4 km/h 11.3 km/h 93% 0.2 mm 0 W/m2
19:54 11.8 °C 10.7 °C 1009.1 hPa NNE 7.9 km/h 16.1 km/h 93% 0.2 mm 0 W/m2
19:59 12 °C 10.6 °C 1009.1 hPa West 13 km/h 25.7 km/h 91% 0.2 mm 0 W/m2
20:04 12.1 °C 10.7 °C 1009.1 hPa WNW 1.4 km/h 11.3 km/h 91% 0.2 mm 0 W/m2
20:09 12.1 °C 10.7 °C 1009.5 hPa ENE 7.9 km/h 25.7 km/h 91% 0.2 mm 0 W/m2
20:14 12 °C 10.6 °C 1009.1 hPa Calm   6.4 km/h 91% 0.2 mm 0 W/m2
20:19 11.9 °C 10.5 °C 1009.1 hPa ENE 3.2 km/h 16.1 km/h 91% 0.2 mm 0 W/m2
20:24 11.9 °C 10.5 °C 1009.1 hPa NW 3.2 km/h 11.3 km/h 91% 0.2 mm 0 W/m2
20:29 11.9 °C 10.5 °C 1009.1 hPa NNE 1.4 km/h 14.5 km/h 91% 0.0 mm 0 W/m2
20:34 11.9 °C 10.5 °C 1009.1 hPa SW 1.4 km/h 6.4 km/h 91% 0.0 mm 0 W/m2
20:40 11.9 °C 10.5 °C 1009.1 hPa NNE 1.4 km/h 8 km/h 91% 0.0 mm 0 W/m2
20:45 11.9 °C 10.5 °C 1009.1 hPa West 9.7 km/h 17.7 km/h 91% 0.0 mm 0 W/m2
20:50 11.9 °C 10.3 °C 1009.1 hPa NNE 3.2 km/h 12.9 km/h 90% 0.0 mm 0 W/m2
20:55 11.8 °C 10.2 °C 1009.1 hPa West 13 km/h 12.9 km/h 90% 0.0 mm 0 W/m2
21:00 11.9 °C 10.3 °C 1009.5 hPa NW 4.7 km/h 14.5 km/h 90% 0.0 mm 0 W/m2
21:05 11.9 °C 10.1 °C 1009.5 hPa NW 19.5 km/h 19.3 km/h 89% 0.0 mm 0 W/m2
21:10 12 °C 10.1 °C 1009.5 hPa West 16.3 km/h 25.7 km/h 88% 0.0 mm 0 W/m2
21:15 12 °C 10.1 °C 1009.1 hPa NNE 3.2 km/h 16.1 km/h 88% 0.0 mm 0 W/m2
21:20 11.9 °C 10 °C 1009.8 hPa WNW 20.9 km/h 24.1 km/h 88% 0.0 mm 0 W/m2
21:25 11.6 °C 9.3 °C 1009.8 hPa NW 17.7 km/h 37 km/h 86% 1.0 mm 0 W/m2
21:30 10.9 °C 8.6 °C 1009.8 hPa West 13 km/h 20.9 km/h 86% 1.3 mm 0 W/m2
21:35 10.7 °C 8.6 °C 1009.8 hPa West 9.7 km/h 37 km/h 87% 1.3 mm 0 W/m2
21:40 10.6 °C 8.4 °C 1009.5 hPa WSW 7.9 km/h 19.3 km/h 86% 1.3 mm 0 W/m2
21:45 10.5 °C 8.3 °C 1009.8 hPa NW 7.9 km/h 19.3 km/h 86% 1.3 mm 0 W/m2
21:50 10.4 °C 8.3 °C 1009.8 hPa NW 7.9 km/h 16.1 km/h 87% 1.3 mm 0 W/m2
21:55 10.3 °C 8.2 °C 1009.5 hPa WNW 6.4 km/h 19.3 km/h 87% 1.3 mm 0 W/m2
22:00 10.2 °C 8.1 °C 1009.8 hPa WNW 7.9 km/h 16.1 km/h 87% 1.3 mm 0 W/m2
22:05 10.2 °C 8.3 °C 1009.5 hPa West 9.7 km/h 19.3 km/h 88% 1.3 mm 0 W/m2
22:10 10.2 °C 8.1 °C 1009.8 hPa North 4.7 km/h 12.9 km/h 87% 1.3 mm 0 W/m2
22:15 10.1 °C 8 °C 1009.8 hPa WSW 4.7 km/h 17.7 km/h 87% 1.3 mm 0 W/m2
22:20 10 °C 7.8 °C 1009.8 hPa WSW 6.4 km/h 17.7 km/h 86% 1.3 mm 0 W/m2
22:25 9.9 °C 7.5 °C 1009.5 hPa WNW 3.2 km/h 16.1 km/h 85% 0.2 mm 0 W/m2
22:30 9.8 °C 7.4 °C 1009.5 hPa West 4.7 km/h 17.7 km/h 85% 0.0 mm 0 W/m2
22:35 9.7 °C 7.3 °C 1009.5 hPa WNW 1.4 km/h 16.1 km/h 85% 0.0 mm 0 W/m2
22:40 9.6 °C 7.2 °C 1009.5 hPa NW 4.7 km/h 16.1 km/h 85% 0.0 mm 0 W/m2
22:45 9.6 °C 7.2 °C 1009.5 hPa WSW 6.4 km/h 9.7 km/h 85% 0.0 mm 0 W/m2
22:50 9.6 °C 7 °C 1009.5 hPa NW 1.4 km/h 16.1 km/h 84% 0.0 mm 0 W/m2
22:55 9.6 °C 6.9 °C 1009.1 hPa Calm   4.8 km/h 83% 0.0 mm 0 W/m2
23:00 9.6 °C 6.7 °C 1009.5 hPa North 3.2 km/h 16.1 km/h 82% 0.0 mm 0 W/m2
23:05 9.6 °C 6.7 °C 1009.5 hPa West 14.3 km/h 19.3 km/h 82% 0.0 mm 0 W/m2
23:10 9.6 °C 6.7 °C 1009.8 hPa West 9.7 km/h 11.3 km/h 82% 0.0 mm 0 W/m2
23:15 9.6 °C 6.7 °C 1009.8 hPa NW 19.3 km/h 19.3 km/h 82% 0.0 mm 0 W/m2
23:20 9.5 °C 6.8 °C 1009.8 hPa West 9.7 km/h 17.7 km/h 83% 0.0 mm 0 W/m2
23:25 9.4 °C 6.7 °C 1010.2 hPa WSW 6.4 km/h 11.3 km/h 83% 0.0 mm 0 W/m2
23:43 9.4 °C 6.5 °C 1010.2 hPa West 4.7 km/h 9.7 km/h 82% 0.0 mm 0 W/m2
23:48 9.3 °C 6.6 °C 1010.2 hPa WNW 4.7 km/h 8 km/h 83% 0.0 mm 0 W/m2
23:53 9.2 °C 6.5 °C 1010.2 hPa NW 16.3 km/h 19.3 km/h 83% 0.0 mm 0 W/m2
23:58 9.2 °C 6.6 °C 1010.2 hPa WNW 4.7 km/h 4.8 km/h 84% 0.0 mm 0 W/m2
Juneau County Weather
Compliments of Weather Underground - 2 mb